createdAt,value
2018-04-22T00:00:06.816Z,79.30
2018-04-22T00:01:38.186Z,79.89
2018-04-22T00:03:05.525Z,80.35
2018-04-22T00:04:32.694Z,80.07
2018-04-22T00:06:00.058Z,80.01
2018-04-22T00:07:27.530Z,79.48
2018-04-22T00:08:54.910Z,78.35
2018-04-22T00:10:18.173Z,78.35
2018-04-22T00:11:50.350Z,78.80
2018-04-22T00:13:16.611Z,79.03
2018-04-22T00:14:43.636Z,79.08
2018-04-22T00:16:10.856Z,79.01
2018-04-22T00:17:38.152Z,78.68
2018-04-22T00:19:01.013Z,78.08
2018-04-22T00:20:28.523Z,77.31
2018-04-22T00:21:59.436Z,77.22
2018-04-22T00:23:22.380Z,76.84
2018-04-22T00:24:49.698Z,77.48
2018-04-22T00:26:20.996Z,76.51
2018-04-22T00:27:44.238Z,76.92
2018-04-22T00:29:11.513Z,76.28
2018-04-22T00:30:38.654Z,76.01
2018-04-22T00:32:09.877Z,75.75
2018-04-22T00:33:37.221Z,75.35
2018-04-22T00:35:04.571Z,75.77
2018-04-22T00:36:27.430Z,75.86
2018-04-22T00:37:54.909Z,76.24
2018-04-22T00:39:21.988Z,76.32
2018-04-22T00:40:49.449Z,77.11
2018-04-22T00:42:20.636Z,76.91
2018-04-22T00:43:43.938Z,76.12
2018-04-22T00:45:11.181Z,76.69
2018-04-22T00:46:38.399Z,76.98
2018-04-22T00:48:05.679Z,77.36
2018-04-22T00:49:36.924Z,77.41
2018-04-22T00:50:59.684Z,78.21
2018-04-22T00:52:26.943Z,79.05
2018-04-22T00:53:58.199Z,79.45
2018-04-22T00:55:21.300Z,78.76
2018-04-22T00:56:52.391Z,79.34
2018-04-22T00:58:15.478Z,78.87
2018-04-22T00:59:42.857Z,79.01
2018-04-22T01:01:13.993Z,78.63
2018-04-22T01:02:37.481Z,79.28
2018-04-22T01:04:04.738Z,79.82
2018-04-22T01:05:31.990Z,80.04
2018-04-22T01:06:59.064Z,80.34
2018-04-22T01:08:32.206Z,80.32
2018-04-22T01:09:57.271Z,79.70
2018-04-22T01:11:20.427Z,79.52
2018-04-22T01:12:47.794Z,79.29
2018-04-22T01:14:14.983Z,79.32
2018-04-22T01:15:46.189Z,78.24
2018-04-22T01:17:09.355Z,78.75
2018-04-22T01:18:36.693Z,80.06
2018-04-22T01:20:07.437Z,80.39
2018-04-22T01:21:34.838Z,80.87
2018-04-22T01:22:58.096Z,81.21
2018-04-22T01:24:29.406Z,81.00
2018-04-22T01:25:52.388Z,80.96
2018-04-22T01:27:23.690Z,80.68
2018-04-22T01:28:46.922Z,80.76
2018-04-22T01:30:17.978Z,81.50
2018-04-22T01:31:45.101Z,81.03
2018-04-22T01:33:12.464Z,80.05
2018-04-22T01:34:35.764Z,79.70
2018-04-22T01:36:03.074Z,80.23
2018-04-22T01:37:30.306Z,79.84
2018-04-22T01:39:01.670Z,80.68
2018-04-22T01:40:29.053Z,81.90
2018-04-22T01:41:52.451Z,82.48
2018-04-22T01:43:19.627Z,83.29
2018-04-22T01:44:50.862Z,83.72
2018-04-22T01:46:13.985Z,83.61
2018-04-22T01:47:41.186Z,83.56
2018-04-22T01:49:08.309Z,83.20
2018-04-22T01:50:35.805Z,83.72
2018-04-22T01:52:03.065Z,83.27
2018-04-22T01:53:34.094Z,81.88
2018-04-22T01:54:57.281Z,80.48
2018-04-22T01:56:24.358Z,80.59
2018-04-22T01:57:55.575Z,82.54
2018-04-22T01:59:18.844Z,82.25
2018-04-22T02:00:46.249Z,82.67
2018-04-22T02:02:13.215Z,82.41
2018-04-22T02:03:44.337Z,82.24
2018-04-22T02:05:11.513Z,81.72
2018-04-22T02:06:38.865Z,81.70
2018-04-22T02:08:06.209Z,79.87
2018-04-22T02:09:29.529Z,79.23
2018-04-22T02:11:00.815Z,79.61
2018-04-22T02:12:24.104Z,80.91
2018-04-22T02:13:51.438Z,81.89
2018-04-22T02:15:18.345Z,82.79
2018-04-22T02:16:45.833Z,82.94
2018-04-22T02:18:16.887Z,82.86
2018-04-22T02:19:39.872Z,83.10
2018-04-22T02:21:07.231Z,83.53
2018-04-22T02:22:38.439Z,83.46
2018-04-22T02:24:01.253Z,83.32
2018-04-22T02:25:28.667Z,84.14
2018-04-22T02:27:00.006Z,83.87
2018-04-22T02:28:27.161Z,83.63
2018-04-22T02:29:54.577Z,82.53
2018-04-22T02:31:17.784Z,83.72
2018-04-22T02:32:48.742Z,83.26
2018-04-22T02:34:12.039Z,82.54
2018-04-22T02:35:38.967Z,82.63
2018-04-22T02:37:10.346Z,82.55
2018-04-22T02:38:33.239Z,82.94
2018-04-22T02:40:00.613Z,81.49
2018-04-22T02:41:27.904Z,81.83
2018-04-22T02:42:55.255Z,82.09
2018-04-22T02:44:22.529Z,82.35
2018-04-22T02:45:49.833Z,82.11
2018-04-22T02:47:17.034Z,82.24
2018-04-22T02:48:48.201Z,82.60
2018-04-22T02:50:15.377Z,83.01
2018-04-22T02:51:42.845Z,83.20
2018-04-22T02:53:10.228Z,83.47
2018-04-22T02:54:33.674Z,84.19
2018-04-22T02:56:00.747Z,83.83
2018-04-22T02:57:31.539Z,84.28
2018-04-22T02:58:58.919Z,83.13
2018-04-22T03:00:22.217Z,83.01
2018-04-22T03:01:48.966Z,83.00
2018-04-22T03:03:19.817Z,83.20
2018-04-22T03:04:46.981Z,81.69
2018-04-22T03:06:14.049Z,81.57
2018-04-22T03:07:37.443Z,80.95
2018-04-22T03:09:04.734Z,81.36
2018-04-22T03:10:31.545Z,81.22
2018-04-22T03:12:02.750Z,81.49
2018-04-22T03:13:30.163Z,80.76
2018-04-22T03:14:53.492Z,81.41
2018-04-22T03:16:24.823Z,81.09
2018-04-22T03:17:47.787Z,81.77
2018-04-22T03:19:18.867Z,82.23
2018-04-22T03:20:41.929Z,82.82
2018-04-22T03:22:09.235Z,82.21
2018-04-22T03:23:36.335Z,81.92
2018-04-22T03:25:03.273Z,82.17
2018-04-22T03:26:30.693Z,81.87
2018-04-22T03:28:02.107Z,81.65
2018-04-22T03:29:25.411Z,80.86
2018-04-22T03:30:52.658Z,80.60
2018-04-22T03:32:23.803Z,80.26
2018-04-22T03:33:50.976Z,79.81
2018-04-22T03:35:14.224Z,80.41
2018-04-22T03:36:45.385Z,80.91
2018-04-22T03:38:08.682Z,80.59
2018-04-22T03:39:35.742Z,80.60
2018-04-22T03:41:06.958Z,80.34
2018-04-22T03:42:29.982Z,80.69
2018-04-22T03:44:00.812Z,80.83
2018-04-22T03:45:28.242Z,80.22
2018-04-22T03:46:55.379Z,80.35
2018-04-22T03:48:18.374Z,80.18
2018-04-22T03:49:45.722Z,80.36
2018-04-22T03:51:12.661Z,80.78
2018-04-22T03:52:44.142Z,80.84
2018-04-22T03:54:07.385Z,81.04
2018-04-22T03:55:34.605Z,81.81
2018-04-22T03:57:01.746Z,82.42
2018-04-22T03:58:33.119Z,82.23
2018-04-22T04:00:00.532Z,82.94
2018-04-22T04:01:23.948Z,83.21
2018-04-22T04:02:51.124Z,83.96
2018-04-22T04:04:18.380Z,84.35
2018-04-22T04:05:45.862Z,84.71
2018-04-22T04:07:12.879Z,85.05
2018-04-22T04:08:39.962Z,83.85
2018-04-22T04:10:07.092Z,84.16
2018-04-22T04:11:34.462Z,84.06
2018-04-22T04:13:01.832Z,83.51
2018-04-22T04:14:32.918Z,82.83
2018-04-22T04:15:56.193Z,82.82
2018-04-22T04:17:27.475Z,82.36
2018-04-22T04:18:50.663Z,82.31
2018-04-22T04:20:18.021Z,82.57
2018-04-22T04:21:49.351Z,82.84
2018-04-22T04:23:12.303Z,82.69
2018-04-22T04:24:39.498Z,82.56
2018-04-22T04:26:06.701Z,82.98
2018-04-22T04:27:33.785Z,82.34
2018-04-22T04:29:05.107Z,82.40
2018-04-22T04:30:28.307Z,83.21
2018-04-22T04:31:55.464Z,84.14
2018-04-22T04:33:26.704Z,84.86
2018-04-22T04:34:49.625Z,85.19
2018-04-22T04:36:20.915Z,85.17
2018-04-22T04:37:47.948Z,85.13
2018-04-22T04:39:11.196Z,85.31
2018-04-22T04:40:38.532Z,85.17
2018-04-22T04:42:05.869Z,85.64
2018-04-22T04:43:33.062Z,85.64
2018-04-22T04:45:04.241Z,85.52
2018-04-22T04:46:31.471Z,86.63
2018-04-22T04:47:58.695Z,87.18
2018-04-22T04:49:21.813Z,88.02
2018-04-22T04:50:53.092Z,88.25
2018-04-22T04:52:16.248Z,88.79
2018-04-22T04:53:43.557Z,88.40
2018-04-22T04:55:10.771Z,88.29
2018-04-22T04:56:38.139Z,88.00
2018-04-22T04:58:05.586Z,88.27
2018-04-22T04:59:36.866Z,88.98
2018-04-22T05:01:04.114Z,89.25
2018-04-22T05:02:31.535Z,89.01
2018-04-22T05:03:54.873Z,88.93
2018-04-22T05:05:26.260Z,89.22
2018-04-22T05:06:49.798Z,89.39
2018-04-22T05:08:21.000Z,88.36
2018-04-22T05:09:44.338Z,88.36
2018-04-22T05:11:11.320Z,87.81
2018-04-22T05:12:42.664Z,88.41
2018-04-22T05:14:09.646Z,88.30
2018-04-22T05:15:32.879Z,89.00
2018-04-22T05:17:00.346Z,89.20
2018-04-22T05:18:27.733Z,89.45
2018-04-22T05:19:55.180Z,89.92
2018-04-22T05:21:22.429Z,89.66
2018-04-22T05:22:53.676Z,89.89
2018-04-22T05:24:20.874Z,90.79
2018-04-22T05:25:48.062Z,90.22
2018-04-22T05:27:11.331Z,90.12
2018-04-22T05:28:42.665Z,89.82
2018-04-22T05:30:06.018Z,89.71
2018-04-22T05:31:33.379Z,89.69
2018-04-22T05:33:04.825Z,90.38
2018-04-22T05:34:28.368Z,90.69
2018-04-22T05:35:55.642Z,90.48
2018-04-22T05:37:26.870Z,90.66
2018-04-22T05:38:50.165Z,89.83
2018-04-22T05:40:21.428Z,89.12
2018-04-22T05:41:48.756Z,87.71
2018-04-22T05:43:12.089Z,87.00
2018-04-22T05:44:43.161Z,87.08
2018-04-22T05:46:06.582Z,86.71
2018-04-22T05:47:37.846Z,85.22
2018-04-22T05:49:05.145Z,85.63
2018-04-22T05:50:32.323Z,84.79
2018-04-22T05:51:55.956Z,82.94
2018-04-22T05:53:23.130Z,82.20
2018-04-22T05:54:54.638Z,81.55
2018-04-22T05:56:21.696Z,79.66
2018-04-22T05:57:44.959Z,77.65
2018-04-22T05:59:12.455Z,76.56
2018-04-22T06:00:39.519Z,74.98
2018-04-22T06:02:06.959Z,74.34
2018-04-22T06:03:38.209Z,73.85
2018-04-22T06:05:01.642Z,73.46
2018-04-22T06:06:32.787Z,72.83
2018-04-22T06:07:56.301Z,71.42
2018-04-22T06:09:23.547Z,73.35
2018-04-22T06:10:54.701Z,72.65
2018-04-22T06:12:18.087Z,73.71
2018-04-22T06:13:49.175Z,74.22
2018-04-22T06:15:16.289Z,74.08
2018-04-22T06:16:43.600Z,74.15
2018-04-22T06:18:10.916Z,73.46
2018-04-22T06:19:34.225Z,72.38
2018-04-22T06:21:01.717Z,72.61
2018-04-22T06:22:33.153Z,72.32
2018-04-22T06:23:56.586Z,72.32
2018-04-22T06:25:23.911Z,70.71
2018-04-22T06:26:51.359Z,71.17
2018-04-22T06:28:18.686Z,71.36
2018-04-22T06:29:49.903Z,71.69
2018-04-22T06:31:13.196Z,72.54
2018-04-22T06:32:44.376Z,73.20
2018-04-22T06:34:07.678Z,74.84
2018-04-22T06:35:35.022Z,72.25
2018-04-22T06:37:06.315Z,73.22
2018-04-22T06:38:29.694Z,73.08
2018-04-22T06:40:00.957Z,73.69
2018-04-22T06:41:28.090Z,73.30
2018-04-22T06:42:51.515Z,74.51
2018-04-22T06:44:22.605Z,75.99
2018-04-22T06:45:45.999Z,77.41
2018-04-22T06:47:13.248Z,75.44
2018-04-22T06:48:40.604Z,74.88
2018-04-22T06:50:12.020Z,75.28
2018-04-22T06:51:35.261Z,76.57
2018-04-22T06:53:02.746Z,74.39
2018-04-22T06:54:30.046Z,76.20
2018-04-22T06:56:01.506Z,76.72
2018-04-22T06:57:24.757Z,74.74
2018-04-22T06:58:52.147Z,75.15
2018-04-22T07:00:23.428Z,75.56
2018-04-22T07:01:46.917Z,76.07
2018-04-22T07:03:14.278Z,76.37
2018-04-22T07:04:41.672Z,75.50
2018-04-22T07:06:08.852Z,76.55
2018-04-22T07:07:40.226Z,78.57
2018-04-22T07:09:07.582Z,76.05
2018-04-22T07:10:30.874Z,76.35
2018-04-22T07:11:58.083Z,77.67
2018-04-22T07:13:29.252Z,76.04
2018-04-22T07:14:52.753Z,74.63
2018-04-22T07:16:23.862Z,76.40
2018-04-22T07:17:47.198Z,73.65
2018-04-22T07:19:18.474Z,74.32
2018-04-22T07:20:41.727Z,75.39
2018-04-22T07:22:08.613Z,73.39
2018-04-22T07:23:40.002Z,72.81
2018-04-22T07:25:07.170Z,74.09
2018-04-22T07:26:30.686Z,72.31
2018-04-22T07:27:57.741Z,70.84
2018-04-22T07:29:25.127Z,71.58
2018-04-22T07:30:52.618Z,71.53
2018-04-22T07:32:19.822Z,73.94
2018-04-22T07:33:47.081Z,73.54
2018-04-22T07:35:14.062Z,72.53
2018-04-22T07:36:41.451Z,71.54
2018-04-22T07:38:08.960Z,72.61
2018-04-22T07:39:36.283Z,72.69
2018-04-22T07:41:07.476Z,72.51
2018-04-22T07:42:34.702Z,72.28
2018-04-22T07:44:01.754Z,72.84
2018-04-22T07:45:25.172Z,73.22
2018-04-22T07:46:52.837Z,72.78
2018-04-22T07:48:24.186Z,73.91
2018-04-22T07:49:47.685Z,73.90
2018-04-22T07:51:14.895Z,73.04
2018-04-22T07:52:42.179Z,73.62
2018-04-22T07:54:13.432Z,70.88
2018-04-22T07:55:36.886Z,74.11
2018-04-22T07:57:04.424Z,70.78
2018-04-22T07:58:31.813Z,73.30
2018-04-22T07:59:59.109Z,71.32
2018-04-22T08:01:26.566Z,71.37
2018-04-22T08:02:53.975Z,73.76
2018-04-22T08:04:21.443Z,68.80
2018-04-22T08:05:52.821Z,67.62
2018-04-22T08:07:16.112Z,67.20
2018-04-22T08:08:43.204Z,67.08
2018-04-22T08:10:10.584Z,66.72
2018-04-22T08:11:38.033Z,66.96
2018-04-22T08:13:05.553Z,66.16
2018-04-22T08:14:32.884Z,66.65
2018-04-22T08:16:00.353Z,67.25
2018-04-22T08:17:27.710Z,65.92
2018-04-22T08:18:55.139Z,63.83
2018-04-22T08:20:22.461Z,64.96
2018-04-22T08:21:53.782Z,67.72
2018-04-22T08:23:17.105Z,62.49
2018-04-22T08:24:44.289Z,62.46
2018-04-22T08:26:11.500Z,61.33
2018-04-22T08:27:38.851Z,62.46
2018-04-22T08:29:06.387Z,62.45
2018-04-22T08:30:33.914Z,60.58
2018-04-22T08:32:01.234Z,59.70
2018-04-22T08:33:32.767Z,58.57
2018-04-22T08:34:56.212Z,58.88
2018-04-22T08:36:27.211Z,57.54
2018-04-22T08:37:50.715Z,59.34
2018-04-22T08:39:17.917Z,58.39
2018-04-22T08:40:45.327Z,61.14
2018-04-22T08:42:16.660Z,60.18
2018-04-22T08:43:39.990Z,58.47
2018-04-22T08:45:11.253Z,59.33
2018-04-22T08:46:38.637Z,59.71
2018-04-22T08:48:02.173Z,58.48
2018-04-22T08:49:29.487Z,58.11
2018-04-22T08:50:57.016Z,58.70
2018-04-22T08:52:24.382Z,58.99
2018-04-22T08:53:51.871Z,58.70
2018-04-22T08:55:23.313Z,58.38
2018-04-22T08:56:46.839Z,57.33
2018-04-22T08:58:14.248Z,56.36
2018-04-22T08:59:41.709Z,59.24
2018-04-22T09:01:13.140Z,58.92
2018-04-22T09:02:36.721Z,58.13
2018-04-22T09:04:04.010Z,56.83
2018-04-22T09:05:31.478Z,57.25
2018-04-22T09:07:06.863Z,60.09
2018-04-22T09:08:30.387Z,58.25
2018-04-22T09:09:53.694Z,57.84
2018-04-22T09:11:25.040Z,55.49
2018-04-22T09:12:48.558Z,57.05
2018-04-22T09:14:15.728Z,55.12
2018-04-22T09:15:43.151Z,55.54
2018-04-22T09:17:14.295Z,55.93
2018-04-22T09:18:41.684Z,54.37
2018-04-22T09:20:09.248Z,56.69
2018-04-22T09:21:32.712Z,56.32
2018-04-22T09:22:59.918Z,56.49
2018-04-22T09:24:27.191Z,56.85
2018-04-22T09:25:54.514Z,54.82
2018-04-22T09:27:25.944Z,54.74
2018-04-22T09:28:53.249Z,56.35
2018-04-22T09:30:16.760Z,55.42
2018-04-22T09:31:44.193Z,55.52
2018-04-22T09:33:11.635Z,55.96
2018-04-22T09:34:42.925Z,57.96
2018-04-22T09:36:10.331Z,57.18
2018-04-22T09:37:33.814Z,55.12
2018-04-22T09:39:01.361Z,52.78
2018-04-22T09:40:28.806Z,56.84
2018-04-22T09:41:56.281Z,55.58
2018-04-22T09:43:27.657Z,57.12
2018-04-22T09:44:55.180Z,54.32
2018-04-22T09:46:18.516Z,56.22
2018-04-22T09:47:46.018Z,56.64
2018-04-22T09:49:17.299Z,57.06
2018-04-22T09:50:40.729Z,56.64
2018-04-22T09:52:08.160Z,57.13
2018-04-22T09:53:35.601Z,57.19
2018-04-22T09:55:02.951Z,57.82
2018-04-22T09:56:34.258Z,56.68
2018-04-22T09:57:57.823Z,55.46
2018-04-22T09:59:24.984Z,55.12
2018-04-22T10:00:52.576Z,53.90
2018-04-22T10:02:23.903Z,53.60
2018-04-22T10:03:47.457Z,54.72
2018-04-22T10:05:14.936Z,54.53
2018-04-22T10:06:42.369Z,54.85
2018-04-22T10:08:13.625Z,54.59
2018-04-22T10:09:37.172Z,58.16
2018-04-22T10:11:04.423Z,55.30
2018-04-22T10:12:32.045Z,57.45
2018-04-22T10:13:59.160Z,57.08
2018-04-22T10:15:26.646Z,55.14
2018-04-22T10:16:54.046Z,56.01
2018-04-22T10:18:21.372Z,56.62
2018-04-22T10:19:52.958Z,55.24
2018-04-22T10:21:20.229Z,57.04
2018-04-22T10:22:43.670Z,55.04
2018-04-22T10:24:11.056Z,54.98
2018-04-22T10:25:38.533Z,56.22
2018-04-22T10:27:05.826Z,55.81
2018-04-22T10:28:33.243Z,56.00
2018-04-22T10:30:00.677Z,52.76
2018-04-22T10:31:27.776Z,55.45
2018-04-22T10:32:55.236Z,56.19
2018-04-22T10:34:22.898Z,52.58
2018-04-22T10:35:54.148Z,55.86
2018-04-22T10:37:17.593Z,55.40
2018-04-22T10:38:44.958Z,55.23
2018-04-22T10:40:16.514Z,57.52
2018-04-22T10:41:39.567Z,56.97
2018-04-22T10:43:10.933Z,54.56
2018-04-22T10:44:34.099Z,55.45
2018-04-22T10:46:05.244Z,58.12
2018-04-22T10:47:28.737Z,56.87
2018-04-22T10:48:56.127Z,52.83
2018-04-22T10:50:27.523Z,55.70
2018-04-22T10:51:51.140Z,51.40
2018-04-22T10:53:22.386Z,52.67
2018-04-22T10:54:49.919Z,50.64
2018-04-22T10:56:13.272Z,50.66
2018-04-22T10:57:40.632Z,51.60
2018-04-22T10:59:08.190Z,52.22
2018-04-22T11:00:35.756Z,52.15
2018-04-22T11:02:03.108Z,50.68
2018-04-22T11:03:30.391Z,51.94
2018-04-22T11:04:57.874Z,53.73
2018-04-22T11:06:25.427Z,54.93
2018-04-22T11:07:56.762Z,51.60
2018-04-22T11:09:20.151Z,51.71
2018-04-22T11:10:51.621Z,50.70
2018-04-22T11:12:15.038Z,47.88
2018-04-22T11:13:42.446Z,48.82
2018-04-22T11:15:13.749Z,48.74
2018-04-22T11:16:37.295Z,48.92
2018-04-22T11:18:04.810Z,47.20
2018-04-22T11:19:36.280Z,47.76
2018-04-22T11:20:59.837Z,49.26
2018-04-22T11:22:31.404Z,50.37
2018-04-22T11:23:54.901Z,48.86
2018-04-22T11:25:22.559Z,49.30
2018-04-22T11:26:50.016Z,46.81
2018-04-22T11:28:17.466Z,45.78
2018-04-22T11:29:44.757Z,43.98
2018-04-22T11:31:12.226Z,44.43
2018-04-22T11:32:39.443Z,44.15
2018-04-22T11:34:06.875Z,44.09
2018-04-22T11:35:34.577Z,47.66
2018-04-22T11:37:02.034Z,46.29
2018-04-22T11:38:29.542Z,44.70
2018-04-22T11:40:00.835Z,48.34
2018-04-22T11:41:24.261Z,46.93
2018-04-22T11:42:51.693Z,46.00
2018-04-22T11:44:19.318Z,43.12
2018-04-22T11:45:46.754Z,46.95
2018-04-22T11:47:14.177Z,46.37
2018-04-22T11:48:45.453Z,43.94
2018-04-22T11:50:12.950Z,46.01
2018-04-22T11:51:36.556Z,47.00
2018-04-22T11:53:07.948Z,46.23
2018-04-22T11:54:31.506Z,45.43
2018-04-22T11:55:58.979Z,42.77
2018-04-22T11:57:30.502Z,42.26
2018-04-22T11:58:54.027Z,42.72
2018-04-22T12:00:21.476Z,42.93
2018-04-22T12:01:52.908Z,42.72
2018-04-22T12:03:20.418Z,44.05
2018-04-22T12:04:44.018Z,46.49
2018-04-22T12:06:15.544Z,45.54
2018-04-22T12:07:39.294Z,42.63
2018-04-22T12:09:10.851Z,43.51
2018-04-22T12:10:34.243Z,42.67
2018-04-22T12:12:01.729Z,42.84
2018-04-22T12:13:29.440Z,44.61
2018-04-22T12:14:56.945Z,43.91
2018-04-22T12:16:24.400Z,41.82
2018-04-22T12:17:52.085Z,39.75
2018-04-22T12:19:19.478Z,42.91
2018-04-22T12:20:46.978Z,43.05
2018-04-22T12:22:14.594Z,42.97
2018-04-22T12:23:45.999Z,41.72
2018-04-22T12:25:09.219Z,41.58
2018-04-22T12:26:36.715Z,40.48
2018-04-22T12:28:08.453Z,40.66
2018-04-22T12:29:31.967Z,40.78
2018-04-22T12:30:59.346Z,43.16
2018-04-22T12:32:30.799Z,39.89
2018-04-22T12:33:54.427Z,39.94
2018-04-22T12:35:25.944Z,39.41
2018-04-22T12:36:53.445Z,41.05
2018-04-22T12:38:17.021Z,38.73
2018-04-22T12:39:44.702Z,39.69
2018-04-22T12:41:12.029Z,39.80
2018-04-22T12:42:39.532Z,42.41
2018-04-22T12:44:07.018Z,41.34
2018-04-22T12:45:38.692Z,42.07
2018-04-22T12:47:02.183Z,41.49
2018-04-22T12:48:33.787Z,39.88
2018-04-22T12:50:01.319Z,42.26
2018-04-22T12:51:24.901Z,42.07
2018-04-22T12:52:52.291Z,42.16
2018-04-22T12:54:19.692Z,41.70
2018-04-22T12:55:47.238Z,39.00
2018-04-22T12:57:18.935Z,40.01
2018-04-22T12:58:46.275Z,38.98
2018-04-22T13:00:09.675Z,40.81
2018-04-22T13:01:36.893Z,42.53
2018-04-22T13:03:04.546Z,40.42
2018-04-22T13:04:32.234Z,40.86
2018-04-22T13:05:59.633Z,41.83
2018-04-22T13:07:26.980Z,43.45
2018-04-22T13:08:54.454Z,41.09
2018-04-22T13:10:25.936Z,42.08
2018-04-22T13:11:49.448Z,41.17
2018-04-22T13:13:16.810Z,41.15
2018-04-22T13:14:43.993Z,42.44
2018-04-22T13:16:11.445Z,40.14
2018-04-22T13:17:38.822Z,41.79
2018-04-22T13:19:10.363Z,41.56
2018-04-22T13:20:34.009Z,41.43
2018-04-22T13:22:05.392Z,41.50
2018-04-22T13:23:29.006Z,40.15
2018-04-22T13:24:56.552Z,42.75
2018-04-22T13:26:24.231Z,42.55
2018-04-22T13:27:51.936Z,40.94
2018-04-22T13:29:23.242Z,41.28
2018-04-22T13:30:46.697Z,41.42
2018-04-22T13:32:14.254Z,42.63
2018-04-22T13:33:41.835Z,39.78
2018-04-22T13:35:09.380Z,39.44
2018-04-22T13:36:36.808Z,40.69
2018-04-22T13:38:04.420Z,41.18
2018-04-22T13:39:31.816Z,42.41
2018-04-22T13:40:59.375Z,40.98
2018-04-22T13:42:30.698Z,42.46
2018-04-22T13:43:58.279Z,43.78
2018-04-22T13:45:25.817Z,41.73
2018-04-22T13:46:53.324Z,41.67
2018-04-22T13:48:16.858Z,41.39
2018-04-22T13:49:44.337Z,42.95
2018-04-22T13:51:11.706Z,43.26
2018-04-22T13:52:39.025Z,43.60
2018-04-22T13:54:06.488Z,42.84
2018-04-22T13:55:38.031Z,43.63
2018-04-22T13:57:01.734Z,43.19
2018-04-22T13:58:29.252Z,42.04
2018-04-22T13:59:56.575Z,42.92
2018-04-22T14:01:28.152Z,42.31
2018-04-22T14:02:51.804Z,41.74
2018-04-22T14:04:23.450Z,42.39
2018-04-22T14:05:46.952Z,43.21
2018-04-22T14:07:14.294Z,43.36
2018-04-22T14:08:45.795Z,43.46
2018-04-22T14:10:09.222Z,43.59
2018-04-22T14:11:36.812Z,44.25
2018-04-22T14:13:04.421Z,45.20
2018-04-22T14:14:35.894Z,45.08
2018-04-22T14:15:59.191Z,43.80
2018-04-22T14:17:26.880Z,44.21
2018-04-22T14:18:54.268Z,43.41
2018-04-22T14:20:21.569Z,43.13
2018-04-22T14:21:48.720Z,43.14
2018-04-22T14:23:19.962Z,43.24
2018-04-22T14:24:43.542Z,42.15
2018-04-22T14:26:14.845Z,43.78
2018-04-22T14:27:42.433Z,43.64
2018-04-22T14:29:05.738Z,42.03
2018-04-22T14:30:33.191Z,43.59
2018-04-22T14:32:00.820Z,42.02
2018-04-22T14:33:28.373Z,42.47
2018-04-22T14:34:59.765Z,44.24
2018-04-22T14:36:22.823Z,45.06
2018-04-22T14:37:50.243Z,45.51
2018-04-22T14:39:21.511Z,45.75
2018-04-22T14:40:48.766Z,45.09
2018-04-22T14:42:16.105Z,45.39
2018-04-22T14:43:43.494Z,46.42
2018-04-22T14:45:06.965Z,45.53
2018-04-22T14:46:38.250Z,43.45
2018-04-22T14:48:01.922Z,42.64
2018-04-22T14:49:29.021Z,43.14
2018-04-22T14:50:56.591Z,43.82
2018-04-22T14:52:24.004Z,45.03
2018-04-22T14:53:51.537Z,46.60
2018-04-22T14:55:18.829Z,48.67
2018-04-22T14:56:50.249Z,48.92
2018-04-22T14:58:13.660Z,48.00
2018-04-22T14:59:44.924Z,46.69
2018-04-22T15:01:08.474Z,51.10
2018-04-22T15:02:35.681Z,49.30
2018-04-22T15:04:07.239Z,47.92
2018-04-22T15:05:30.935Z,49.72
2018-04-22T15:07:02.126Z,49.30
2018-04-22T15:08:25.562Z,49.33
2018-04-22T15:09:57.041Z,48.64
2018-04-22T15:11:20.641Z,47.41
2018-04-22T15:12:48.073Z,49.52
2018-04-22T15:14:19.245Z,47.77
2018-04-22T15:15:42.746Z,47.40
2018-04-22T15:17:10.187Z,47.69
2018-04-22T15:18:37.698Z,47.32
2018-04-22T15:20:05.259Z,47.15
2018-04-22T15:21:32.742Z,47.21
2018-04-22T15:23:00.213Z,47.53
2018-04-22T15:24:27.735Z,46.45
2018-04-22T15:25:55.090Z,47.79
2018-04-22T15:27:26.579Z,47.75
2018-04-22T15:28:50.156Z,47.75
2018-04-22T15:30:17.640Z,46.18
2018-04-22T15:31:45.044Z,46.86
2018-04-22T15:33:12.259Z,47.50
2018-04-22T15:34:39.548Z,47.84
2018-04-22T15:36:07.120Z,47.10
2018-04-22T15:37:34.691Z,48.17
2018-04-22T15:39:02.133Z,48.11
2018-04-22T15:40:29.646Z,49.01
2018-04-22T15:41:56.979Z,48.02
2018-04-22T15:43:24.333Z,48.72
2018-04-22T15:44:55.942Z,48.69
2018-04-22T15:46:19.458Z,47.61
2018-04-22T15:47:50.749Z,46.67
2018-04-22T15:49:14.158Z,47.46
2018-04-22T15:50:45.498Z,48.29
2018-04-22T15:52:08.991Z,48.55
2018-04-22T15:53:36.486Z,48.50
2018-04-22T15:55:07.855Z,47.90
2018-04-22T15:56:31.407Z,48.44
2018-04-22T15:57:58.914Z,49.08
2018-04-22T15:59:30.301Z,48.78
2018-04-22T16:00:53.780Z,50.16
2018-04-22T16:02:25.226Z,48.96
2018-04-22T16:03:48.869Z,49.61
2018-04-22T16:05:20.334Z,49.23
2018-04-22T16:06:43.744Z,49.90
2018-04-22T16:08:15.176Z,50.26
2018-04-22T16:09:38.476Z,50.49
2018-04-22T16:11:05.841Z,48.60
2018-04-22T16:12:33.510Z,49.53
2018-04-22T16:14:00.984Z,49.48
2018-04-22T16:15:32.567Z,50.62
2018-04-22T16:16:55.464Z,50.44
2018-04-22T16:18:26.927Z,51.27
2018-04-22T16:19:50.281Z,52.33
2018-04-22T16:21:17.735Z,52.81
2018-04-22T16:22:45.279Z,51.56
2018-04-22T16:24:12.435Z,52.42
2018-04-22T16:25:43.746Z,51.98
2018-04-22T16:27:11.085Z,51.56
2018-04-22T16:28:34.641Z,52.00
2018-04-22T16:30:02.131Z,51.30
2018-04-22T16:31:29.575Z,50.15
2018-04-22T16:33:01.040Z,48.42
2018-04-22T16:34:24.310Z,48.84
2018-04-22T16:35:55.924Z,49.31
2018-04-22T16:37:19.341Z,48.71
2018-04-22T16:38:50.763Z,48.91
2018-04-22T16:40:14.190Z,49.74
2018-04-22T16:41:41.601Z,49.23
2018-04-22T16:43:09.233Z,49.47
2018-04-22T16:44:36.471Z,48.47
2018-04-22T16:46:07.790Z,49.20
2018-04-22T16:47:31.395Z,48.48
2018-04-22T16:48:58.820Z,48.91
2018-04-22T16:50:30.176Z,48.90
2018-04-22T16:51:53.212Z,49.59
2018-04-22T16:53:20.289Z,50.27
2018-04-22T16:54:47.863Z,50.53
2018-04-22T16:56:15.284Z,51.00
2018-04-22T16:57:42.635Z,52.17
2018-04-22T16:59:09.946Z,52.36
2018-04-22T17:00:41.397Z,53.37
2018-04-22T17:02:08.826Z,53.13
2018-04-22T17:03:32.371Z,53.70
2018-04-22T17:04:59.886Z,52.82
2018-04-22T17:06:27.367Z,54.14
2018-04-22T17:07:58.894Z,53.90
2018-04-22T17:09:22.453Z,54.08
2018-04-22T17:10:49.831Z,54.20
2018-04-22T17:12:17.352Z,54.50
2018-04-22T17:13:44.603Z,54.59
2018-04-22T17:15:12.097Z,54.63
2018-04-22T17:16:39.734Z,55.87
2018-04-22T17:18:06.955Z,55.00
2018-04-22T17:19:34.619Z,54.72
2018-04-22T17:21:02.045Z,55.21
2018-04-22T17:22:28.993Z,56.81
2018-04-22T17:24:00.521Z,57.33
2018-04-22T17:25:23.858Z,55.22
2018-04-22T17:26:51.136Z,55.60
2018-04-22T17:28:18.584Z,57.65
2018-04-22T17:29:49.959Z,57.39
2018-04-22T17:31:17.326Z,57.61
2018-04-22T17:32:40.576Z,56.94
2018-04-22T17:34:07.993Z,57.74
2018-04-22T17:35:35.562Z,58.01
2018-04-22T17:37:02.842Z,59.89
2018-04-22T17:38:30.468Z,57.94
2018-04-22T17:40:01.709Z,58.38
2018-04-22T17:41:25.112Z,57.45
2018-04-22T17:42:52.547Z,58.00
2018-04-22T17:44:19.977Z,57.85
2018-04-22T17:45:47.513Z,57.47
2018-04-22T17:47:14.962Z,57.40
2018-04-22T17:48:42.227Z,57.84
2018-04-22T17:50:09.374Z,57.31
2018-04-22T17:51:36.709Z,56.70
2018-04-22T17:53:04.251Z,58.87
2018-04-22T17:54:31.543Z,57.80
2018-04-22T17:55:59.071Z,57.30
2018-04-22T17:57:26.378Z,57.43
2018-04-22T17:58:53.922Z,57.53
2018-04-22T18:00:21.362Z,59.23
2018-04-22T18:01:48.903Z,58.33
2018-04-22T18:03:16.168Z,58.14
2018-04-22T18:04:47.622Z,59.19
2018-04-22T18:06:11.140Z,61.47
2018-04-22T18:07:38.382Z,62.20
2018-04-22T18:09:05.762Z,61.28
2018-04-22T18:10:37.206Z,61.71
2018-04-22T18:12:00.511Z,60.79
2018-04-22T18:13:32.022Z,59.71
2018-04-22T18:15:03.573Z,59.45
2018-04-22T18:16:26.936Z,60.00
2018-04-22T18:17:50.410Z,59.58
2018-04-22T18:19:21.870Z,61.88
2018-04-22T18:20:45.319Z,60.59
2018-04-22T18:22:12.884Z,59.27
2018-04-22T18:23:43.978Z,60.70
2018-04-22T18:25:07.289Z,60.25
2018-04-22T18:26:38.814Z,60.78
2018-04-22T18:28:06.289Z,60.86
2018-04-22T18:29:29.761Z,62.05
2018-04-22T18:30:57.178Z,61.04
2018-04-22T18:32:24.569Z,60.15
2018-04-22T18:33:51.721Z,59.96
2018-04-22T18:35:19.219Z,60.32
2018-04-22T18:36:50.493Z,62.35
2018-04-22T18:38:17.932Z,60.13
2018-04-22T18:39:40.960Z,60.24
2018-04-22T18:41:12.301Z,59.60
2018-04-22T18:42:35.763Z,60.12
2018-04-22T18:44:07.182Z,61.27